sensor_id;sensor_type;location;lat;lon;timestamp;P1;durP1;ratioP1;P2;durP2;ratioP2
18596;SDS011;9428;50.950;6.912;2024-01-15T00:00:28;36.70;;;14.60;;
18596;SDS011;9428;50.950;6.912;2024-01-15T00:03:16;34.43;;;14.63;;
18596;SDS011;9428;50.950;6.912;2024-01-15T00:06:04;32.37;;;15.47;;
18596;SDS011;9428;50.950;6.912;2024-01-15T00:08:52;34.10;;;15.77;;
18596;SDS011;9428;50.950;6.912;2024-01-15T00:11:39;36.67;;;15.87;;
18596;SDS011;9428;50.950;6.912;2024-01-15T00:14:27;37.30;;;16.50;;
18596;SDS011;9428;50.950;6.912;2024-01-15T00:17:14;36.73;;;16.40;;
18596;SDS011;9428;50.950;6.912;2024-01-15T00:20:03;31.60;;;15.07;;
18596;SDS011;9428;50.950;6.912;2024-01-15T00:22:52;45.20;;;15.93;;
18596;SDS011;9428;50.950;6.912;2024-01-15T00:25:40;34.90;;;14.57;;
18596;SDS011;9428;50.950;6.912;2024-01-15T00:28:28;27.77;;;13.30;;
18596;SDS011;9428;50.950;6.912;2024-01-15T00:31:15;31.77;;;15.70;;
18596;SDS011;9428;50.950;6.912;2024-01-15T00:34:03;37.27;;;15.90;;
18596;SDS011;9428;50.950;6.912;2024-01-15T00:36:52;44.10;;;17.50;;
18596;SDS011;9428;50.950;6.912;2024-01-15T00:39:39;37.47;;;17.07;;
18596;SDS011;9428;50.950;6.912;2024-01-15T00:42:27;40.83;;;18.00;;
18596;SDS011;9428;50.950;6.912;2024-01-15T00:45:15;41.93;;;18.83;;
18596;SDS011;9428;50.950;6.912;2024-01-15T00:48:04;45.13;;;18.73;;
18596;SDS011;9428;50.950;6.912;2024-01-15T00:50:52;47.97;;;16.83;;
18596;SDS011;9428;50.950;6.912;2024-01-15T00:53:41;42.60;;;18.30;;
18596;SDS011;9428;50.950;6.912;2024-01-15T00:56:29;42.97;;;16.87;;
18596;SDS011;9428;50.950;6.912;2024-01-15T00:59:16;44.43;;;17.60;;
18596;SDS011;9428;50.950;6.912;2024-01-15T01:02:06;42.90;;;18.87;;
18596;SDS011;9428;50.950;6.912;2024-01-15T01:04:53;39.20;;;17.57;;
18596;SDS011;9428;50.950;6.912;2024-01-15T01:07:40;36.20;;;17.50;;
18596;SDS011;9428;50.950;6.912;2024-01-15T01:10:29;36.73;;;17.07;;
18596;SDS011;9428;50.950;6.912;2024-01-15T01:13:16;39.93;;;16.80;;
18596;SDS011;9428;50.950;6.912;2024-01-15T01:16:04;40.17;;;16.30;;
18596;SDS011;9428;50.950;6.912;2024-01-15T01:18:51;32.60;;;16.47;;
18596;SDS011;9428;50.950;6.912;2024-01-15T01:21:39;40.70;;;15.77;;
18596;SDS011;9428;50.950;6.912;2024-01-15T01:24:26;39.73;;;17.83;;
18596;SDS011;9428;50.950;6.912;2024-01-15T01:27:15;40.50;;;17.03;;
18596;SDS011;9428;50.950;6.912;2024-01-15T01:30:02;37.47;;;16.30;;
18596;SDS011;9428;50.950;6.912;2024-01-15T01:32:51;42.63;;;15.73;;
18596;SDS011;9428;50.950;6.912;2024-01-15T01:35:38;36.77;;;15.83;;
18596;SDS011;9428;50.950;6.912;2024-01-15T01:38:29;42.77;;;16.73;;
18596;SDS011;9428;50.950;6.912;2024-01-15T01:41:16;42.13;;;16.10;;
18596;SDS011;9428;50.950;6.912;2024-01-15T01:44:05;38.53;;;17.27;;
18596;SDS011;9428;50.950;6.912;2024-01-15T01:46:52;36.80;;;15.97;;
18596;SDS011;9428;50.950;6.912;2024-01-15T01:49:40;43.23;;;18.50;;
18596;SDS011;9428;50.950;6.912;2024-01-15T01:52:28;46.23;;;18.50;;
18596;SDS011;9428;50.950;6.912;2024-01-15T01:55:15;44.57;;;17.23;;
18596;SDS011;9428;50.950;6.912;2024-01-15T01:58:03;38.60;;;17.17;;
18596;SDS011;9428;50.950;6.912;2024-01-15T02:00:52;33.17;;;16.33;;
18596;SDS011;9428;50.950;6.912;2024-01-15T02:03:40;38.20;;;16.77;;
18596;SDS011;9428;50.950;6.912;2024-01-15T02:06:27;39.57;;;16.53;;
18596;SDS011;9428;50.950;6.912;2024-01-15T02:09:15;35.53;;;15.03;;
18596;SDS011;9428;50.950;6.912;2024-01-15T02:12:03;40.20;;;16.83;;
18596;SDS011;9428;50.950;6.912;2024-01-15T02:14:51;33.97;;;15.63;;
18596;SDS011;9428;50.950;6.912;2024-01-15T02:20:46;31.30;;;15.50;;
18596;SDS011;9428;50.950;6.912;2024-01-15T02:23:34;34.57;;;16.10;;
18596;SDS011;9428;50.950;6.912;2024-01-15T02:26:22;40.17;;;17.63;;
18596;SDS011;9428;50.950;6.912;2024-01-15T02:29:10;37.60;;;18.37;;
18596;SDS011;9428;50.950;6.912;2024-01-15T02:31:58;33.70;;;16.17;;
18596;SDS011;9428;50.950;6.912;2024-01-15T02:34:45;33.70;;;16.33;;
18596;SDS011;9428;50.950;6.912;2024-01-15T02:37:32;41.83;;;17.60;;
18596;SDS011;9428;50.950;6.912;2024-01-15T02:40:21;35.73;;;16.33;;
18596;SDS011;9428;50.950;6.912;2024-01-15T02:43:08;40.43;;;17.43;;
18596;SDS011;9428;50.950;6.912;2024-01-15T02:45:56;35.13;;;16.17;;
18596;SDS011;9428;50.950;6.912;2024-01-15T02:48:43;43.27;;;17.73;;
18596;SDS011;9428;50.950;6.912;2024-01-15T02:51:33;37.33;;;15.80;;
18596;SDS011;9428;50.950;6.912;2024-01-15T02:54:20;38.77;;;17.17;;
18596;SDS011;9428;50.950;6.912;2024-01-15T02:57:09;39.10;;;15.80;;
18596;SDS011;9428;50.950;6.912;2024-01-15T02:59:57;39.17;;;17.07;;
18596;SDS011;9428;50.950;6.912;2024-01-15T03:02:44;38.27;;;17.67;;
18596;SDS011;9428;50.950;6.912;2024-01-15T03:05:31;34.27;;;15.77;;
18596;SDS011;9428;50.950;6.912;2024-01-15T03:08:19;35.63;;;16.63;;
18596;SDS011;9428;50.950;6.912;2024-01-15T03:11:08;35.73;;;16.40;;
18596;SDS011;9428;50.950;6.912;2024-01-15T03:13:56;37.50;;;17.20;;
18596;SDS011;9428;50.950;6.912;2024-01-15T03:16:45;35.53;;;15.80;;
18596;SDS011;9428;50.950;6.912;2024-01-15T03:19:34;34.03;;;16.43;;
18596;SDS011;9428;50.950;6.912;2024-01-15T03:22:21;36.27;;;15.40;;
18596;SDS011;9428;50.950;6.912;2024-01-15T03:25:09;30.90;;;14.93;;
18596;SDS011;9428;50.950;6.912;2024-01-15T03:27:56;34.37;;;15.93;;
18596;SDS011;9428;50.950;6.912;2024-01-15T03:30:45;33.77;;;15.87;;
18596;SDS011;9428;50.950;6.912;2024-01-15T03:33:32;33.40;;;15.67;;
18596;SDS011;9428;50.950;6.912;2024-01-15T03:36:19;29.47;;;13.90;;
18596;SDS011;9428;50.950;6.912;2024-01-15T03:39:07;33.40;;;15.97;;
18596;SDS011;9428;50.950;6.912;2024-01-15T03:41:54;36.87;;;15.77;;
18596;SDS011;9428;50.950;6.912;2024-01-15T03:44:42;30.83;;;15.23;;
18596;SDS011;9428;50.950;6.912;2024-01-15T03:47:30;30.90;;;15.27;;
18596;SDS011;9428;50.950;6.912;2024-01-15T03:50:18;35.40;;;17.07;;
18596;SDS011;9428;50.950;6.912;2024-01-15T03:53:05;32.27;;;16.00;;
18596;SDS011;9428;50.950;6.912;2024-01-15T03:55:52;37.70;;;17.30;;
18596;SDS011;9428;50.950;6.912;2024-01-15T03:58:39;38.53;;;16.70;;
18596;SDS011;9428;50.950;6.912;2024-01-15T04:01:27;33.67;;;15.67;;
18596;SDS011;9428;50.950;6.912;2024-01-15T04:04:16;33.97;;;16.63;;
18596;SDS011;9428;50.950;6.912;2024-01-15T04:07:03;35.50;;;15.83;;
18596;SDS011;9428;50.950;6.912;2024-01-15T04:09:51;38.00;;;16.60;;
18596;SDS011;9428;50.950;6.912;2024-01-15T04:12:38;37.90;;;16.33;;
18596;SDS011;9428;50.950;6.912;2024-01-15T04:15:25;35.97;;;15.60;;
18596;SDS011;9428;50.950;6.912;2024-01-15T04:18:13;35.60;;;15.03;;
18596;SDS011;9428;50.950;6.912;2024-01-15T04:21:05;30.70;;;14.67;;
18596;SDS011;9428;50.950;6.912;2024-01-15T04:23:52;37.30;;;16.10;;
18596;SDS011;9428;50.950;6.912;2024-01-15T04:26:40;33.03;;;15.50;;
18596;SDS011;9428;50.950;6.912;2024-01-15T04:29:29;29.10;;;14.83;;
18596;SDS011;9428;50.950;6.912;2024-01-15T04:32:19;31.83;;;15.50;;
18596;SDS011;9428;50.950;6.912;2024-01-15T04:35:07;35.33;;;14.73;;
18596;SDS011;9428;50.950;6.912;2024-01-15T04:38:00;28.57;;;14.13;;
18596;SDS011;9428;50.950;6.912;2024-01-15T04:40:50;30.60;;;14.60;;
18596;SDS011;9428;50.950;6.912;2024-01-15T04:43:37;34.23;;;14.30;;
18596;SDS011;9428;50.950;6.912;2024-01-15T04:46:28;26.93;;;14.00;;
18596;SDS011;9428;50.950;6.912;2024-01-15T04:49:18;26.23;;;13.07;;
18596;SDS011;9428;50.950;6.912;2024-01-15T04:52:05;30.67;;;13.47;;
18596;SDS011;9428;50.950;6.912;2024-01-15T04:54:56;24.63;;;11.20;;
18596;SDS011;9428;50.950;6.912;2024-01-15T04:57:44;26.97;;;12.00;;
18596;SDS011;9428;50.950;6.912;2024-01-15T05:00:31;22.97;;;11.27;;
18596;SDS011;9428;50.950;6.912;2024-01-15T05:03:19;27.73;;;13.73;;
18596;SDS011;9428;50.950;6.912;2024-01-15T05:06:08;23.40;;;12.97;;
18596;SDS011;9428;50.950;6.912;2024-01-15T05:08:56;27.73;;;12.30;;
18596;SDS011;9428;50.950;6.912;2024-01-15T05:11:45;20.77;;;11.17;;
18596;SDS011;9428;50.950;6.912;2024-01-15T05:14:32;28.60;;;13.20;;
18596;SDS011;9428;50.950;6.912;2024-01-15T05:17:19;27.87;;;12.67;;
18596;SDS011;9428;50.950;6.912;2024-01-15T05:20:07;23.10;;;11.50;;
18596;SDS011;9428;50.950;6.912;2024-01-15T05:22:56;23.50;;;11.90;;
18596;SDS011;9428;50.950;6.912;2024-01-15T05:25:45;28.77;;;12.63;;
18596;SDS011;9428;50.950;6.912;2024-01-15T05:28:37;26.30;;;11.80;;
18596;SDS011;9428;50.950;6.912;2024-01-15T05:31:24;22.33;;;11.83;;
18596;SDS011;9428;50.950;6.912;2024-01-15T05:34:15;25.80;;;12.07;;
18596;SDS011;9428;50.950;6.912;2024-01-15T05:37:02;20.73;;;12.00;;
18596;SDS011;9428;50.950;6.912;2024-01-15T05:39:50;18.03;;;10.73;;
18596;SDS011;9428;50.950;6.912;2024-01-15T05:42:37;22.80;;;11.33;;
18596;SDS011;9428;50.950;6.912;2024-01-15T05:45:33;22.10;;;11.57;;
18596;SDS011;9428;50.950;6.912;2024-01-15T05:48:22;20.80;;;10.53;;
18596;SDS011;9428;50.950;6.912;2024-01-15T05:51:12;18.37;;;9.93;;
18596;SDS011;9428;50.950;6.912;2024-01-15T05:53:59;19.30;;;10.23;;
18596;SDS011;9428;50.950;6.912;2024-01-15T05:56:47;23.17;;;11.27;;
18596;SDS011;9428;50.950;6.912;2024-01-15T05:59:34;23.13;;;11.57;;
18596;SDS011;9428;50.950;6.912;2024-01-15T06:02:25;21.60;;;11.63;;
18596;SDS011;9428;50.950;6.912;2024-01-15T06:05:15;25.33;;;11.37;;
18596;SDS011;9428;50.950;6.912;2024-01-15T06:08:02;19.80;;;11.33;;
18596;SDS011;9428;50.950;6.912;2024-01-15T06:10:50;23.90;;;10.90;;
18596;SDS011;9428;50.950;6.912;2024-01-15T06:13:39;21.87;;;10.23;;
18596;SDS011;9428;50.950;6.912;2024-01-15T06:16:28;19.97;;;10.27;;
18596;SDS011;9428;50.950;6.912;2024-01-15T06:19:17;20.67;;;10.73;;
18596;SDS011;9428;50.950;6.912;2024-01-15T06:22:04;21.93;;;11.07;;
18596;SDS011;9428;50.950;6.912;2024-01-15T06:24:54;17.53;;;10.77;;
18596;SDS011;9428;50.950;6.912;2024-01-15T06:27:45;22.63;;;10.83;;
18596;SDS011;9428;50.950;6.912;2024-01-15T06:30:32;22.97;;;12.37;;
18596;SDS011;9428;50.950;6.912;2024-01-15T06:33:22;19.60;;;11.30;;
18596;SDS011;9428;50.950;6.912;2024-01-15T06:36:11;21.00;;;11.03;;
18596;SDS011;9428;50.950;6.912;2024-01-15T06:39:01;19.80;;;11.53;;
18596;SDS011;9428;50.950;6.912;2024-01-15T06:41:49;23.90;;;11.80;;
18596;SDS011;9428;50.950;6.912;2024-01-15T06:44:37;22.73;;;12.10;;
18596;SDS011;9428;50.950;6.912;2024-01-15T06:47:25;24.10;;;11.33;;
18596;SDS011;9428;50.950;6.912;2024-01-15T06:50:13;23.27;;;12.27;;
18596;SDS011;9428;50.950;6.912;2024-01-15T06:53:01;21.30;;;12.57;;
18596;SDS011;9428;50.950;6.912;2024-01-15T06:55:49;22.27;;;12.53;;
18596;SDS011;9428;50.950;6.912;2024-01-15T06:58:37;22.60;;;11.77;;
18596;SDS011;9428;50.950;6.912;2024-01-15T07:01:24;26.93;;;13.53;;
18596;SDS011;9428;50.950;6.912;2024-01-15T07:04:11;22.77;;;13.33;;
18596;SDS011;9428;50.950;6.912;2024-01-15T07:06:59;28.40;;;13.87;;
18596;SDS011;9428;50.950;6.912;2024-01-15T07:09:48;23.50;;;12.33;;
18596;SDS011;9428;50.950;6.912;2024-01-15T07:12:37;20.40;;;12.07;;
18596;SDS011;9428;50.950;6.912;2024-01-15T07:15:25;20.13;;;11.67;;
18596;SDS011;9428;50.950;6.912;2024-01-15T07:18:12;21.03;;;11.77;;
18596;SDS011;9428;50.950;6.912;2024-01-15T07:21:03;19.07;;;11.00;;
18596;SDS011;9428;50.950;6.912;2024-01-15T07:23:50;22.73;;;11.50;;
18596;SDS011;9428;50.950;6.912;2024-01-15T07:26:39;24.70;;;12.70;;
18596;SDS011;9428;50.950;6.912;2024-01-15T07:29:26;19.33;;;11.57;;
18596;SDS011;9428;50.950;6.912;2024-01-15T07:32:14;24.20;;;11.83;;
18596;SDS011;9428;50.950;6.912;2024-01-15T07:35:04;24.37;;;12.30;;
18596;SDS011;9428;50.950;6.912;2024-01-15T07:37:52;29.97;;;12.23;;
18596;SDS011;9428;50.950;6.912;2024-01-15T07:40:40;25.23;;;12.87;;
18596;SDS011;9428;50.950;6.912;2024-01-15T07:43:28;20.63;;;12.57;;
18596;SDS011;9428;50.950;6.912;2024-01-15T07:46:16;23.37;;;12.17;;
18596;SDS011;9428;50.950;6.912;2024-01-15T07:49:03;20.23;;;11.93;;
18596;SDS011;9428;50.950;6.912;2024-01-15T07:51:51;21.87;;;12.13;;
18596;SDS011;9428;50.950;6.912;2024-01-15T07:54:38;22.17;;;12.03;;
18596;SDS011;9428;50.950;6.912;2024-01-15T07:57:25;27.63;;;12.47;;
18596;SDS011;9428;50.950;6.912;2024-01-15T08:00:16;24.70;;;11.97;;
18596;SDS011;9428;50.950;6.912;2024-01-15T08:03:04;26.40;;;13.27;;
18596;SDS011;9428;50.950;6.912;2024-01-15T08:05:51;24.93;;;12.13;;
18596;SDS011;9428;50.950;6.912;2024-01-15T08:08:39;25.17;;;12.93;;
18596;SDS011;9428;50.950;6.912;2024-01-15T08:11:27;24.80;;;13.37;;
18596;SDS011;9428;50.950;6.912;2024-01-15T08:14:15;29.70;;;13.80;;
18596;SDS011;9428;50.950;6.912;2024-01-15T08:17:04;24.10;;;14.47;;
18596;SDS011;9428;50.950;6.912;2024-01-15T08:19:51;29.67;;;13.80;;
18596;SDS011;9428;50.950;6.912;2024-01-15T08:22:39;26.07;;;13.03;;
18596;SDS011;9428;50.950;6.912;2024-01-15T08:25:26;24.60;;;13.47;;
18596;SDS011;9428;50.950;6.912;2024-01-15T08:28:14;26.80;;;14.67;;
18596;SDS011;9428;50.950;6.912;2024-01-15T08:31:02;25.47;;;14.60;;
18596;SDS011;9428;50.950;6.912;2024-01-15T08:33:51;27.83;;;13.73;;
18596;SDS011;9428;50.950;6.912;2024-01-15T08:36:38;37.27;;;16.33;;
18596;SDS011;9428;50.950;6.912;2024-01-15T08:39:26;28.20;;;14.30;;
18596;SDS011;9428;50.950;6.912;2024-01-15T08:42:13;23.57;;;12.37;;
18596;SDS011;9428;50.950;6.912;2024-01-15T08:45:01;26.03;;;13.77;;
18596;SDS011;9428;50.950;6.912;2024-01-15T08:47:48;27.60;;;13.27;;
18596;SDS011;9428;50.950;6.912;2024-01-15T08:50:37;30.50;;;14.47;;
18596;SDS011;9428;50.950;6.912;2024-01-15T08:53:24;24.50;;;13.73;;
18596;SDS011;9428;50.950;6.912;2024-01-15T08:56:12;23.87;;;12.50;;
18596;SDS011;9428;50.950;6.912;2024-01-15T08:59:00;25.97;;;12.80;;
18596;SDS011;9428;50.950;6.912;2024-01-15T09:01:47;26.30;;;14.20;;
18596;SDS011;9428;50.950;6.912;2024-01-15T09:04:35;26.07;;;14.17;;
18596;SDS011;9428;50.950;6.912;2024-01-15T09:07:24;20.73;;;12.00;;
18596;SDS011;9428;50.950;6.912;2024-01-15T09:10:12;22.47;;;12.90;;
18596;SDS011;9428;50.950;6.912;2024-01-15T09:12:59;24.40;;;12.27;;
18596;SDS011;9428;50.950;6.912;2024-01-15T09:15:49;24.23;;;11.37;;
18596;SDS011;9428;50.950;6.912;2024-01-15T09:18:36;27.10;;;12.30;;
18596;SDS011;9428;50.950;6.912;2024-01-15T09:21:24;21.37;;;12.60;;
18596;SDS011;9428;50.950;6.912;2024-01-15T09:24:13;21.27;;;12.13;;
18596;SDS011;9428;50.950;6.912;2024-01-15T09:27:00;22.90;;;10.43;;
18596;SDS011;9428;50.950;6.912;2024-01-15T09:29:48;20.50;;;10.77;;
18596;SDS011;9428;50.950;6.912;2024-01-15T09:32:35;17.30;;;10.60;;
18596;SDS011;9428;50.950;6.912;2024-01-15T09:35:23;19.90;;;9.73;;
18596;SDS011;9428;50.950;6.912;2024-01-15T09:38:10;24.87;;;10.70;;
18596;SDS011;9428;50.950;6.912;2024-01-15T09:40:59;23.13;;;9.70;;
18596;SDS011;9428;50.950;6.912;2024-01-15T09:43:47;15.77;;;9.47;;
18596;SDS011;9428;50.950;6.912;2024-01-15T09:46:35;14.77;;;9.53;;
18596;SDS011;9428;50.950;6.912;2024-01-15T09:49:23;13.70;;;8.20;;
18596;SDS011;9428;50.950;6.912;2024-01-15T09:52:11;14.27;;;6.90;;
18596;SDS011;9428;50.950;6.912;2024-01-15T09:54:58;11.33;;;6.83;;
18596;SDS011;9428;50.950;6.912;2024-01-15T09:57:52;8.73;;;5.60;;
18596;SDS011;9428;50.950;6.912;2024-01-15T10:00:41;12.93;;;5.97;;
18596;SDS011;9428;50.950;6.912;2024-01-15T10:03:30;12.73;;;6.00;;
18596;SDS011;9428;50.950;6.912;2024-01-15T10:06:18;11.93;;;6.27;;
18596;SDS011;9428;50.950;6.912;2024-01-15T10:09:07;15.60;;;6.37;;
18596;SDS011;9428;50.950;6.912;2024-01-15T10:11:56;9.47;;;5.40;;
18596;SDS011;9428;50.950;6.912;2024-01-15T10:14:45;10.50;;;4.90;;
18596;SDS011;9428;50.950;6.912;2024-01-15T10:17:36;10.77;;;5.77;;
18596;SDS011;9428;50.950;6.912;2024-01-15T10:20:23;7.63;;;5.03;;
18596;SDS011;9428;50.950;6.912;2024-01-15T10:23:11;7.80;;;4.73;;
18596;SDS011;9428;50.950;6.912;2024-01-15T10:25:58;7.70;;;4.67;;
18596;SDS011;9428;50.950;6.912;2024-01-15T10:28:49;7.00;;;4.37;;
18596;SDS011;9428;50.950;6.912;2024-01-15T10:31:39;11.50;;;5.50;;
18596;SDS011;9428;50.950;6.912;2024-01-15T10:34:27;11.73;;;5.43;;
18596;SDS011;9428;50.950;6.912;2024-01-15T10:37:14;6.87;;;4.23;;
18596;SDS011;9428;50.950;6.912;2024-01-15T10:40:02;5.93;;;4.40;;
18596;SDS011;9428;50.950;6.912;2024-01-15T10:42:51;6.83;;;3.83;;
18596;SDS011;9428;50.950;6.912;2024-01-15T10:45:38;7.20;;;3.90;;
18596;SDS011;9428;50.950;6.912;2024-01-15T10:48:27;9.23;;;4.40;;
18596;SDS011;9428;50.950;6.912;2024-01-15T10:51:16;5.20;;;3.77;;
18596;SDS011;9428;50.950;6.912;2024-01-15T10:54:04;5.00;;;3.37;;
18596;SDS011;9428;50.950;6.912;2024-01-15T10:56:52;6.70;;;4.13;;
18596;SDS011;9428;50.950;6.912;2024-01-15T10:59:40;4.17;;;3.33;;
18596;SDS011;9428;50.950;6.912;2024-01-15T11:02:27;5.93;;;3.13;;
18596;SDS011;9428;50.950;6.912;2024-01-15T11:05:16;7.83;;;3.00;;
18596;SDS011;9428;50.950;6.912;2024-01-15T11:08:07;6.20;;;3.03;;
18596;SDS011;9428;50.950;6.912;2024-01-15T11:10:55;4.70;;;3.00;;
18596;SDS011;9428;50.950;6.912;2024-01-15T11:13:46;5.80;;;2.70;;
18596;SDS011;9428;50.950;6.912;2024-01-15T11:16:55;3.50;;;2.73;;
18596;SDS011;9428;50.950;6.912;2024-01-15T11:19:46;8.03;;;3.53;;
18596;SDS011;9428;50.950;6.912;2024-01-15T11:22:49;6.47;;;3.50;;
18596;SDS011;9428;50.950;6.912;2024-01-15T11:25:37;4.03;;;3.40;;
18596;SDS011;9428;50.950;6.912;2024-01-15T11:34:51;6.03;;;4.33;;
18596;SDS011;9428;50.950;6.912;2024-01-15T11:37:57;7.17;;;4.67;;
18596;SDS011;9428;50.950;6.912;2024-01-15T11:40:44;4.13;;;3.50;;
18596;SDS011;9428;50.950;6.912;2024-01-15T11:43:33;5.97;;;3.83;;
18596;SDS011;9428;50.950;6.912;2024-01-15T11:46:20;5.00;;;3.83;;
18596;SDS011;9428;50.950;6.912;2024-01-15T11:49:08;5.37;;;4.03;;
18596;SDS011;9428;50.950;6.912;2024-01-15T11:52:04;7.20;;;4.97;;
18596;SDS011;9428;50.950;6.912;2024-01-15T11:55:00;7.27;;;5.10;;
18596;SDS011;9428;50.950;6.912;2024-01-15T11:57:54;6.73;;;5.10;;
18596;SDS011;9428;50.950;6.912;2024-01-15T12:00:42;9.00;;;6.00;;
18596;SDS011;9428;50.950;6.912;2024-01-15T12:03:31;9.43;;;6.40;;
18596;SDS011;9428;50.950;6.912;2024-01-15T12:06:20;9.73;;;6.70;;
18596;SDS011;9428;50.950;6.912;2024-01-15T12:09:08;9.77;;;6.93;;
18596;SDS011;9428;50.950;6.912;2024-01-15T12:12:00;13.40;;;7.40;;
18596;SDS011;9428;50.950;6.912;2024-01-15T12:14:53;10.30;;;7.40;;
18596;SDS011;9428;50.950;6.912;2024-01-15T12:17:41;10.57;;;6.97;;
18596;SDS011;9428;50.950;6.912;2024-01-15T12:20:29;10.20;;;6.73;;
18596;SDS011;9428;50.950;6.912;2024-01-15T12:23:17;15.20;;;6.67;;
18596;SDS011;9428;50.950;6.912;2024-01-15T12:26:04;13.47;;;7.03;;
18596;SDS011;9428;50.950;6.912;2024-01-15T12:28:53;12.77;;;6.80;;
18596;SDS011;9428;50.950;6.912;2024-01-15T12:31:41;18.70;;;6.07;;
18596;SDS011;9428;50.950;6.912;2024-01-15T12:34:29;15.07;;;6.83;;
18596;SDS011;9428;50.950;6.912;2024-01-15T12:37:17;8.97;;;5.63;;
18596;SDS011;9428;50.950;6.912;2024-01-15T12:40:06;14.60;;;5.20;;
18596;SDS011;9428;50.950;6.912;2024-01-15T12:42:55;13.13;;;5.17;;
18596;SDS011;9428;50.950;6.912;2024-01-15T12:45:44;12.77;;;5.40;;
18596;SDS011;9428;50.950;6.912;2024-01-15T12:48:32;12.50;;;5.60;;
18596;SDS011;9428;50.950;6.912;2024-01-15T12:51:24;10.83;;;4.70;;
18596;SDS011;9428;50.950;6.912;2024-01-15T12:54:11;11.03;;;4.80;;
18596;SDS011;9428;50.950;6.912;2024-01-15T12:56:58;14.17;;;4.73;;
18596;SDS011;9428;50.950;6.912;2024-01-15T12:59:46;12.03;;;4.90;;
18596;SDS011;9428;50.950;6.912;2024-01-15T13:02:35;12.43;;;4.90;;
18596;SDS011;9428;50.950;6.912;2024-01-15T13:05:23;8.43;;;4.03;;
18596;SDS011;9428;50.950;6.912;2024-01-15T13:08:12;13.53;;;4.77;;
18596;SDS011;9428;50.950;6.912;2024-01-15T13:11:00;10.13;;;4.47;;
18596;SDS011;9428;50.950;6.912;2024-01-15T13:13:47;10.00;;;4.20;;
18596;SDS011;9428;50.950;6.912;2024-01-15T13:16:34;11.10;;;4.03;;
18596;SDS011;9428;50.950;6.912;2024-01-15T13:19:23;16.07;;;4.47;;
18596;SDS011;9428;50.950;6.912;2024-01-15T13:22:11;7.87;;;3.70;;
18596;SDS011;9428;50.950;6.912;2024-01-15T13:24:59;13.33;;;4.37;;
18596;SDS011;9428;50.950;6.912;2024-01-15T13:27:49;4.40;;;3.00;;
18596;SDS011;9428;50.950;6.912;2024-01-15T13:30:37;10.00;;;3.30;;
18596;SDS011;9428;50.950;6.912;2024-01-15T13:33:24;12.17;;;3.93;;
18596;SDS011;9428;50.950;6.912;2024-01-15T13:36:13;8.30;;;2.97;;
18596;SDS011;9428;50.950;6.912;2024-01-15T13:39:00;6.47;;;3.00;;
18596;SDS011;9428;50.950;6.912;2024-01-15T13:41:48;6.63;;;2.53;;
18596;SDS011;9428;50.950;6.912;2024-01-15T13:44:36;4.43;;;2.87;;
18596;SDS011;9428;50.950;6.912;2024-01-15T13:47:23;6.63;;;2.37;;
18596;SDS011;9428;50.950;6.912;2024-01-15T13:50:11;3.53;;;1.83;;
18596;SDS011;9428;50.950;6.912;2024-01-15T13:53:04;4.87;;;2.60;;
18596;SDS011;9428;50.950;6.912;2024-01-15T13:55:51;3.40;;;2.30;;
18596;SDS011;9428;50.950;6.912;2024-01-15T13:58:39;6.53;;;3.03;;
18596;SDS011;9428;50.950;6.912;2024-01-15T14:01:26;4.03;;;2.70;;
18596;SDS011;9428;50.950;6.912;2024-01-15T14:04:14;4.37;;;2.77;;
18596;SDS011;9428;50.950;6.912;2024-01-15T14:07:01;9.17;;;3.00;;
18596;SDS011;9428;50.950;6.912;2024-01-15T14:09:50;8.23;;;4.47;;
18596;SDS011;9428;50.950;6.912;2024-01-15T14:12:38;4.23;;;2.90;;
18596;SDS011;9428;50.950;6.912;2024-01-15T14:15:25;6.23;;;2.17;;
18596;SDS011;9428;50.950;6.912;2024-01-15T14:18:13;3.23;;;2.03;;
18596;SDS011;9428;50.950;6.912;2024-01-15T14:21:00;2.23;;;1.90;;
18596;SDS011;9428;50.950;6.912;2024-01-15T14:23:48;4.30;;;1.60;;
18596;SDS011;9428;50.950;6.912;2024-01-15T14:26:37;2.20;;;1.73;;
18596;SDS011;9428;50.950;6.912;2024-01-15T14:29:24;3.97;;;2.03;;
18596;SDS011;9428;50.950;6.912;2024-01-15T14:32:12;3.33;;;2.77;;
18596;SDS011;9428;50.950;6.912;2024-01-15T14:34:59;9.13;;;2.57;;
18596;SDS011;9428;50.950;6.912;2024-01-15T14:37:48;3.37;;;2.50;;
18596;SDS011;9428;50.950;6.912;2024-01-15T14:40:36;4.97;;;2.40;;
18596;SDS011;9428;50.950;6.912;2024-01-15T14:43:25;4.40;;;2.63;;
18596;SDS011;9428;50.950;6.912;2024-01-15T14:46:15;4.03;;;1.93;;
18596;SDS011;9428;50.950;6.912;2024-01-15T14:49:02;6.13;;;2.70;;
18596;SDS011;9428;50.950;6.912;2024-01-15T14:51:50;3.90;;;2.23;;
18596;SDS011;9428;50.950;6.912;2024-01-15T14:54:37;3.87;;;1.73;;
18596;SDS011;9428;50.950;6.912;2024-01-15T14:57:25;5.10;;;2.37;;
18596;SDS011;9428;50.950;6.912;2024-01-15T15:00:14;2.90;;;2.60;;
18596;SDS011;9428;50.950;6.912;2024-01-15T15:03:02;2.40;;;2.20;;
18596;SDS011;9428;50.950;6.912;2024-01-15T15:05:50;4.37;;;1.90;;
18596;SDS011;9428;50.950;6.912;2024-01-15T15:08:37;2.57;;;2.37;;
18596;SDS011;9428;50.950;6.912;2024-01-15T15:11:25;3.17;;;2.33;;
18596;SDS011;9428;50.950;6.912;2024-01-15T15:14:13;3.87;;;2.40;;
18596;SDS011;9428;50.950;6.912;2024-01-15T15:17:01;2.20;;;1.70;;
18596;SDS011;9428;50.950;6.912;2024-01-15T15:19:49;2.73;;;1.73;;
18596;SDS011;9428;50.950;6.912;2024-01-15T15:22:38;1.57;;;1.47;;
18596;SDS011;9428;50.950;6.912;2024-01-15T15:25:26;5.10;;;2.03;;
18596;SDS011;9428;50.950;6.912;2024-01-15T15:28:14;4.13;;;1.53;;
18596;SDS011;9428;50.950;6.912;2024-01-15T15:31:02;2.67;;;1.57;;
18596;SDS011;9428;50.950;6.912;2024-01-15T15:33:50;1.50;;;1.40;;
18596;SDS011;9428;50.950;6.912;2024-01-15T15:36:38;2.97;;;1.47;;
18596;SDS011;9428;50.950;6.912;2024-01-15T15:39:26;2.57;;;1.60;;
18596;SDS011;9428;50.950;6.912;2024-01-15T15:42:13;3.07;;;1.80;;
18596;SDS011;9428;50.950;6.912;2024-01-15T15:45:00;2.77;;;1.60;;
18596;SDS011;9428;50.950;6.912;2024-01-15T15:47:48;2.83;;;1.90;;
18596;SDS011;9428;50.950;6.912;2024-01-15T15:50:36;3.40;;;1.90;;
18596;SDS011;9428;50.950;6.912;2024-01-15T15:53:24;2.67;;;1.87;;
18596;SDS011;9428;50.950;6.912;2024-01-15T15:56:11;2.83;;;2.00;;
18596;SDS011;9428;50.950;6.912;2024-01-15T15:58:58;2.67;;;2.10;;
18596;SDS011;9428;50.950;6.912;2024-01-15T16:01:47;2.80;;;1.97;;
18596;SDS011;9428;50.950;6.912;2024-01-15T16:04:40;4.37;;;2.30;;
18596;SDS011;9428;50.950;6.912;2024-01-15T16:07:29;2.97;;;2.67;;
18596;SDS011;9428;50.950;6.912;2024-01-15T16:10:16;4.27;;;2.50;;
18596;SDS011;9428;50.950;6.912;2024-01-15T16:13:05;5.13;;;2.60;;
18596;SDS011;9428;50.950;6.912;2024-01-15T16:15:52;3.97;;;2.50;;
18596;SDS011;9428;50.950;6.912;2024-01-15T16:18:39;3.07;;;2.77;;
18596;SDS011;9428;50.950;6.912;2024-01-15T16:21:27;5.03;;;3.00;;
18596;SDS011;9428;50.950;6.912;2024-01-15T16:24:16;3.13;;;2.60;;
18596;SDS011;9428;50.950;6.912;2024-01-15T16:27:04;5.33;;;3.20;;
18596;SDS011;9428;50.950;6.912;2024-01-15T16:29:52;3.33;;;2.30;;
18596;SDS011;9428;50.950;6.912;2024-01-15T16:32:39;3.27;;;2.17;;
18596;SDS011;9428;50.950;6.912;2024-01-15T16:35:26;3.63;;;2.83;;
18596;SDS011;9428;50.950;6.912;2024-01-15T16:38:14;8.70;;;3.57;;
18596;SDS011;9428;50.950;6.912;2024-01-15T16:41:03;7.97;;;2.40;;
18596;SDS011;9428;50.950;6.912;2024-01-15T16:43:50;4.03;;;2.60;;
18596;SDS011;9428;50.950;6.912;2024-01-15T16:46:38;3.30;;;3.00;;
18596;SDS011;9428;50.950;6.912;2024-01-15T16:49:25;11.70;;;3.70;;
18596;SDS011;9428;50.950;6.912;2024-01-15T16:52:12;5.50;;;3.23;;
18596;SDS011;9428;50.950;6.912;2024-01-15T16:55:00;6.70;;;2.90;;
18596;SDS011;9428;50.950;6.912;2024-01-15T16:57:49;7.70;;;3.53;;
18596;SDS011;9428;50.950;6.912;2024-01-15T17:00:37;12.20;;;4.20;;